sensor_id;sensor_type;location;lat;lon;timestamp;temperature;humidity
75451;DHT22;64029;48.244;9.188;2023-04-03T00:01:27;5.00;79.70
75451;DHT22;64029;48.244;9.188;2023-04-03T00:03:53;5.00;79.80
75451;DHT22;64029;48.244;9.188;2023-04-03T00:06:21;4.90;80.10
75451;DHT22;64029;48.244;9.188;2023-04-03T00:08:48;4.90;79.90
75451;DHT22;64029;48.244;9.188;2023-04-03T00:11:15;5.00;79.90
75451;DHT22;64029;48.244;9.188;2023-04-03T00:13:44;5.00;79.80
75451;DHT22;64029;48.244;9.188;2023-04-03T00:16:12;4.90;79.70
75451;DHT22;64029;48.244;9.188;2023-04-03T00:18:39;4.90;79.40
75451;DHT22;64029;48.244;9.188;2023-04-03T00:21:07;4.90;79.10
75451;DHT22;64029;48.244;9.188;2023-04-03T00:23:34;4.90;78.90
75451;DHT22;64029;48.244;9.188;2023-04-03T00:26:01;4.90;78.90
75451;DHT22;64029;48.244;9.188;2023-04-03T00:28:28;4.80;78.40
75451;DHT22;64029;48.244;9.188;2023-04-03T00:30:56;4.80;78.30
75451;DHT22;64029;48.244;9.188;2023-04-03T00:33:23;4.80;78.30
75451;DHT22;64029;48.244;9.188;2023-04-03T00:35:50;4.80;78.20
75451;DHT22;64029;48.244;9.188;2023-04-03T00:38:18;4.80;78.20
75451;DHT22;64029;48.244;9.188;2023-04-03T00:40:47;4.70;77.90
75451;DHT22;64029;48.244;9.188;2023-04-03T00:43:16;4.70;78.00
75451;DHT22;64029;48.244;9.188;2023-04-03T00:45:44;4.70;78.10
75451;DHT22;64029;48.244;9.188;2023-04-03T00:48:15;4.70;78.00
75451;DHT22;64029;48.244;9.188;2023-04-03T00:50:44;4.70;78.10
75451;DHT22;64029;48.244;9.188;2023-04-03T00:53:13;4.70;78.30
75451;DHT22;64029;48.244;9.188;2023-04-03T00:55:41;4.60;77.70
75451;DHT22;64029;48.244;9.188;2023-04-03T00:58:10;4.60;78.00
75451;DHT22;64029;48.244;9.188;2023-04-03T01:00:40;4.50;78.50
75451;DHT22;64029;48.244;9.188;2023-04-03T01:03:08;4.60;78.20
75451;DHT22;64029;48.244;9.188;2023-04-03T01:05:37;4.60;77.80
75451;DHT22;64029;48.244;9.188;2023-04-03T01:08:04;4.60;77.70
75451;DHT22;64029;48.244;9.188;2023-04-03T01:10:31;4.60;78.00
75451;DHT22;64029;48.244;9.188;2023-04-03T01:12:59;4.50;77.30
75451;DHT22;64029;48.244;9.188;2023-04-03T01:15:27;4.40;77.20
75451;DHT22;64029;48.244;9.188;2023-04-03T01:17:56;4.40;77.10
75451;DHT22;64029;48.244;9.188;2023-04-03T01:23:56;4.40;77.30
75451;DHT22;64029;48.244;9.188;2023-04-03T01:26:25;4.40;77.20
75451;DHT22;64029;48.244;9.188;2023-04-03T01:28:54;4.30;77.00
75451;DHT22;64029;48.244;9.188;2023-04-03T01:31:24;4.30;77.10
75451;DHT22;64029;48.244;9.188;2023-04-03T01:33:53;4.30;77.10
75451;DHT22;64029;48.244;9.188;2023-04-03T01:36:22;4.30;77.00
75451;DHT22;64029;48.244;9.188;2023-04-03T01:38:50;4.30;76.80
75451;DHT22;64029;48.244;9.188;2023-04-03T01:41:17;4.30;76.80
75451;DHT22;64029;48.244;9.188;2023-04-03T01:43:46;4.30;76.80
75451;DHT22;64029;48.244;9.188;2023-04-03T01:46:13;4.20;76.60
75451;DHT22;64029;48.244;9.188;2023-04-03T01:48:40;4.20;76.40
75451;DHT22;64029;48.244;9.188;2023-04-03T01:51:08;4.20;76.50
75451;DHT22;64029;48.244;9.188;2023-04-03T01:53:35;4.20;76.50
75451;DHT22;64029;48.244;9.188;2023-04-03T01:56:02;4.10;76.40
75451;DHT22;64029;48.244;9.188;2023-04-03T01:58:29;4.10;76.30
75451;DHT22;64029;48.244;9.188;2023-04-03T02:00:56;4.10;76.60
75451;DHT22;64029;48.244;9.188;2023-04-03T02:03:23;4.10;76.70
75451;DHT22;64029;48.244;9.188;2023-04-03T02:05:50;4.10;76.50
75451;DHT22;64029;48.244;9.188;2023-04-03T02:08:19;4.10;77.30
75451;DHT22;64029;48.244;9.188;2023-04-03T02:10:47;4.10;77.30
75451;DHT22;64029;48.244;9.188;2023-04-03T02:13:14;4.10;77.00
75451;DHT22;64029;48.244;9.188;2023-04-03T02:15:41;4.10;76.60
75451;DHT22;64029;48.244;9.188;2023-04-03T02:18:08;4.00;76.50
75451;DHT22;64029;48.244;9.188;2023-04-03T02:20:35;4.00;76.90
75451;DHT22;64029;48.244;9.188;2023-04-03T02:23:02;4.00;76.70
75451;DHT22;64029;48.244;9.188;2023-04-03T02:25:32;4.00;76.60
75451;DHT22;64029;48.244;9.188;2023-04-03T02:27:59;4.00;76.60
75451;DHT22;64029;48.244;9.188;2023-04-03T02:30:26;4.00;76.60
75451;DHT22;64029;48.244;9.188;2023-04-03T02:32:53;4.00;76.60
75451;DHT22;64029;48.244;9.188;2023-04-03T02:35:20;3.90;76.60
75451;DHT22;64029;48.244;9.188;2023-04-03T02:37:47;3.90;76.50
75451;DHT22;64029;48.244;9.188;2023-04-03T02:40:14;3.90;76.60
75451;DHT22;64029;48.244;9.188;2023-04-03T02:42:42;3.90;76.60
75451;DHT22;64029;48.244;9.188;2023-04-03T02:45:09;3.90;76.50
75451;DHT22;64029;48.244;9.188;2023-04-03T02:47:36;3.90;76.60
75451;DHT22;64029;48.244;9.188;2023-04-03T02:50:04;3.90;76.50
75451;DHT22;64029;48.244;9.188;2023-04-03T02:52:31;3.90;76.40
75451;DHT22;64029;48.244;9.188;2023-04-03T02:54:57;3.80;76.30
75451;DHT22;64029;48.244;9.188;2023-04-03T02:57:24;3.80;76.10
75451;DHT22;64029;48.244;9.188;2023-04-03T02:59:52;3.80;76.10
75451;DHT22;64029;48.244;9.188;2023-04-03T03:02:19;3.80;76.10
75451;DHT22;64029;48.244;9.188;2023-04-03T03:04:46;3.80;76.20
75451;DHT22;64029;48.244;9.188;2023-04-03T03:07:13;3.70;76.10
75451;DHT22;64029;48.244;9.188;2023-04-03T03:09:40;3.70;76.10
75451;DHT22;64029;48.244;9.188;2023-04-03T03:12:07;3.70;76.20
75451;DHT22;64029;48.244;9.188;2023-04-03T03:14:33;3.70;76.30
75451;DHT22;64029;48.244;9.188;2023-04-03T03:17:02;3.70;76.00
75451;DHT22;64029;48.244;9.188;2023-04-03T03:19:29;3.70;76.00
75451;DHT22;64029;48.244;9.188;2023-04-03T03:21:55;3.70;76.00
75451;DHT22;64029;48.244;9.188;2023-04-03T03:24:22;3.70;76.10
75451;DHT22;64029;48.244;9.188;2023-04-03T03:26:49;3.60;75.90
75451;DHT22;64029;48.244;9.188;2023-04-03T03:29:16;3.60;76.90
75451;DHT22;64029;48.244;9.188;2023-04-03T03:31:43;3.60;76.00
75451;DHT22;64029;48.244;9.188;2023-04-03T03:34:12;3.60;76.00
75451;DHT22;64029;48.244;9.188;2023-04-03T03:36:39;3.60;75.90
75451;DHT22;64029;48.244;9.188;2023-04-03T03:39:06;3.60;75.70
75451;DHT22;64029;48.244;9.188;2023-04-03T03:41:33;3.60;75.60
75451;DHT22;64029;48.244;9.188;2023-04-03T03:44:00;3.50;75.60
75451;DHT22;64029;48.244;9.188;2023-04-03T03:46:27;3.50;75.60
75451;DHT22;64029;48.244;9.188;2023-04-03T03:48:54;3.50;75.50
75451;DHT22;64029;48.244;9.188;2023-04-03T03:51:22;3.50;74.80
75451;DHT22;64029;48.244;9.188;2023-04-03T03:53:49;3.50;74.50
75451;DHT22;64029;48.244;9.188;2023-04-03T03:56:16;3.50;74.40
75451;DHT22;64029;48.244;9.188;2023-04-03T03:58:42;3.40;73.80
75451;DHT22;64029;48.244;9.188;2023-04-03T04:01:09;3.40;73.60
75451;DHT22;64029;48.244;9.188;2023-04-03T04:03:36;3.40;73.50
75451;DHT22;64029;48.244;9.188;2023-04-03T04:06:03;3.30;72.70
75451;DHT22;64029;48.244;9.188;2023-04-03T04:08:31;3.30;73.20
75451;DHT22;64029;48.244;9.188;2023-04-03T04:10:58;3.30;72.40
75451;DHT22;64029;48.244;9.188;2023-04-03T04:13:25;3.30;72.50
75451;DHT22;64029;48.244;9.188;2023-04-03T04:15:52;3.30;72.60
75451;DHT22;64029;48.244;9.188;2023-04-03T04:18:19;3.20;72.60
75451;DHT22;64029;48.244;9.188;2023-04-03T04:20:48;3.20;72.00
75451;DHT22;64029;48.244;9.188;2023-04-03T04:23:15;3.20;72.00
75451;DHT22;64029;48.244;9.188;2023-04-03T04:25:45;3.10;71.90
75451;DHT22;64029;48.244;9.188;2023-04-03T04:28:12;3.10;71.60
75451;DHT22;64029;48.244;9.188;2023-04-03T04:30:39;3.10;71.70
75451;DHT22;64029;48.244;9.188;2023-04-03T04:33:06;3.10;71.60
75451;DHT22;64029;48.244;9.188;2023-04-03T04:35:33;3.10;71.80
75451;DHT22;64029;48.244;9.188;2023-04-03T04:38:00;3.10;71.90
75451;DHT22;64029;48.244;9.188;2023-04-03T04:40:28;3.10;71.70
75451;DHT22;64029;48.244;9.188;2023-04-03T04:42:56;3.00;71.40
75451;DHT22;64029;48.244;9.188;2023-04-03T04:45:23;3.10;71.90
75451;DHT22;64029;48.244;9.188;2023-04-03T04:47:50;3.00;71.20
75451;DHT22;64029;48.244;9.188;2023-04-03T04:50:18;3.00;71.30
75451;DHT22;64029;48.244;9.188;2023-04-03T04:52:45;3.00;71.20
75451;DHT22;64029;48.244;9.188;2023-04-03T04:55:12;3.00;71.20
75451;DHT22;64029;48.244;9.188;2023-04-03T04:57:38;3.00;71.20
75451;DHT22;64029;48.244;9.188;2023-04-03T05:00:08;2.90;71.00
75451;DHT22;64029;48.244;9.188;2023-04-03T05:02:35;2.90;70.70
75451;DHT22;64029;48.244;9.188;2023-04-03T05:05:02;2.90;71.30
75451;DHT22;64029;48.244;9.188;2023-04-03T05:07:29;2.90;71.30
75451;DHT22;64029;48.244;9.188;2023-04-03T05:09:56;2.90;71.10
75451;DHT22;64029;48.244;9.188;2023-04-03T05:12:23;2.90;70.30
75451;DHT22;64029;48.244;9.188;2023-04-03T05:14:49;2.80;71.40
75451;DHT22;64029;48.244;9.188;2023-04-03T05:17:18;2.90;71.00
75451;DHT22;64029;48.244;9.188;2023-04-03T05:19:44;2.90;71.50
75451;DHT22;64029;48.244;9.188;2023-04-03T05:22:11;2.90;71.60
75451;DHT22;64029;48.244;9.188;2023-04-03T05:24:38;2.90;71.30
75451;DHT22;64029;48.244;9.188;2023-04-03T05:27:08;2.90;71.70
75451;DHT22;64029;48.244;9.188;2023-04-03T05:29:35;2.90;71.50
75451;DHT22;64029;48.244;9.188;2023-04-03T05:32:02;2.80;70.90
75451;DHT22;64029;48.244;9.188;2023-04-03T05:34:30;2.90;71.20
75451;DHT22;64029;48.244;9.188;2023-04-03T05:36:57;2.80;71.00
75451;DHT22;64029;48.244;9.188;2023-04-03T05:39:24;2.80;70.70
75451;DHT22;64029;48.244;9.188;2023-04-03T05:41:51;2.80;70.50
75451;DHT22;64029;48.244;9.188;2023-04-03T05:44:18;2.80;71.00
75451;DHT22;64029;48.244;9.188;2023-04-03T05:46:45;2.80;69.80
75451;DHT22;64029;48.244;9.188;2023-04-03T05:49:11;2.80;71.10
75451;DHT22;64029;48.244;9.188;2023-04-03T05:51:40;2.70;70.20
75451;DHT22;64029;48.244;9.188;2023-04-03T05:54:11;2.80;70.00
75451;DHT22;64029;48.244;9.188;2023-04-03T05:56:39;2.70;70.20
75451;DHT22;64029;48.244;9.188;2023-04-03T05:59:05;2.70;69.90
75451;DHT22;64029;48.244;9.188;2023-04-03T06:01:32;2.70;69.60
75451;DHT22;64029;48.244;9.188;2023-04-03T06:04:00;2.70;70.40
75451;DHT22;64029;48.244;9.188;2023-04-03T06:06:44;2.70;69.30
75451;DHT22;64029;48.244;9.188;2023-04-03T06:09:11;2.70;69.80
75451;DHT22;64029;48.244;9.188;2023-04-03T06:11:38;2.70;69.40
75451;DHT22;64029;48.244;9.188;2023-04-03T06:14:05;2.70;69.70
75451;DHT22;64029;48.244;9.188;2023-04-03T06:16:33;2.70;69.90
75451;DHT22;64029;48.244;9.188;2023-04-03T06:19:00;2.70;69.70
75451;DHT22;64029;48.244;9.188;2023-04-03T06:21:27;2.70;68.90
75451;DHT22;64029;48.244;9.188;2023-04-03T06:23:56;2.70;70.10
75451;DHT22;64029;48.244;9.188;2023-04-03T06:26:23;2.70;69.70
75451;DHT22;64029;48.244;9.188;2023-04-03T06:28:49;2.70;69.90
75451;DHT22;64029;48.244;9.188;2023-04-03T06:31:16;2.80;70.40
75451;DHT22;64029;48.244;9.188;2023-04-03T06:33:43;2.80;69.60
75451;DHT22;64029;48.244;9.188;2023-04-03T06:36:11;2.70;69.60
75451;DHT22;64029;48.244;9.188;2023-04-03T06:38:38;2.80;69.80
75451;DHT22;64029;48.244;9.188;2023-04-03T06:41:06;2.80;69.80
75451;DHT22;64029;48.244;9.188;2023-04-03T06:43:33;2.80;69.70
75451;DHT22;64029;48.244;9.188;2023-04-03T06:46:00;2.80;69.70
75451;DHT22;64029;48.244;9.188;2023-04-03T06:48:27;2.80;69.50
75451;DHT22;64029;48.244;9.188;2023-04-03T06:50:54;2.80;69.60
75451;DHT22;64029;48.244;9.188;2023-04-03T06:53:21;2.80;69.60
75451;DHT22;64029;48.244;9.188;2023-04-03T06:55:48;2.80;69.00
75451;DHT22;64029;48.244;9.188;2023-04-03T06:58:16;2.90;69.90
75451;DHT22;64029;48.244;9.188;2023-04-03T07:00:43;2.90;69.70
75451;DHT22;64029;48.244;9.188;2023-04-03T07:03:10;2.90;69.90
75451;DHT22;64029;48.244;9.188;2023-04-03T07:05:37;2.90;69.30
75451;DHT22;64029;48.244;9.188;2023-04-03T07:08:04;2.90;69.60
75451;DHT22;64029;48.244;9.188;2023-04-03T07:10:31;2.90;69.90
75451;DHT22;64029;48.244;9.188;2023-04-03T07:12:58;3.00;70.20
75451;DHT22;64029;48.244;9.188;2023-04-03T07:15:28;3.00;69.50
75451;DHT22;64029;48.244;9.188;2023-04-03T07:17:55;3.00;70.10
75451;DHT22;64029;48.244;9.188;2023-04-03T07:20:22;3.00;69.80
75451;DHT22;64029;48.244;9.188;2023-04-03T07:22:49;3.10;70.40
75451;DHT22;64029;48.244;9.188;2023-04-03T07:25:16;3.10;70.10
75451;DHT22;64029;48.244;9.188;2023-04-03T07:27:43;3.10;70.00
75451;DHT22;64029;48.244;9.188;2023-04-03T07:30:10;3.10;70.10
75451;DHT22;64029;48.244;9.188;2023-04-03T07:32:40;3.10;70.20
75451;DHT22;64029;48.244;9.188;2023-04-03T07:35:08;3.20;70.70
75451;DHT22;64029;48.244;9.188;2023-04-03T07:37:34;3.20;70.60
75451;DHT22;64029;48.244;9.188;2023-04-03T07:40:02;3.20;70.30
75451;DHT22;64029;48.244;9.188;2023-04-03T07:42:29;3.20;69.70
75451;DHT22;64029;48.244;9.188;2023-04-03T07:44:57;3.20;70.60
75451;DHT22;64029;48.244;9.188;2023-04-03T07:47:24;3.30;70.80
75451;DHT22;64029;48.244;9.188;2023-04-03T07:49:53;3.30;70.70
75451;DHT22;64029;48.244;9.188;2023-04-03T07:52:19;3.30;70.70
75451;DHT22;64029;48.244;9.188;2023-04-03T07:54:46;3.30;70.70
75451;DHT22;64029;48.244;9.188;2023-04-03T07:57:13;3.40;70.90
75451;DHT22;64029;48.244;9.188;2023-04-03T07:59:40;3.40;70.90
75451;DHT22;64029;48.244;9.188;2023-04-03T08:02:09;3.40;70.10
75451;DHT22;64029;48.244;9.188;2023-04-03T08:04:35;3.40;70.80
75451;DHT22;64029;48.244;9.188;2023-04-03T08:07:04;3.40;70.60
75451;DHT22;64029;48.244;9.188;2023-04-03T08:09:31;3.50;71.00
75451;DHT22;64029;48.244;9.188;2023-04-03T08:11:58;3.50;71.10
75451;DHT22;64029;48.244;9.188;2023-04-03T08:14:25;3.50;70.40
75451;DHT22;64029;48.244;9.188;2023-04-03T08:16:52;3.50;70.60
75451;DHT22;64029;48.244;9.188;2023-04-03T08:19:19;3.50;70.50
75451;DHT22;64029;48.244;9.188;2023-04-03T08:21:45;3.50;70.60
75451;DHT22;64029;48.244;9.188;2023-04-03T08:24:14;3.50;70.20
75451;DHT22;64029;48.244;9.188;2023-04-03T08:26:40;3.50;70.00
75451;DHT22;64029;48.244;9.188;2023-04-03T08:29:07;3.50;70.10
75451;DHT22;64029;48.244;9.188;2023-04-03T08:31:34;3.50;70.10
75451;DHT22;64029;48.244;9.188;2023-04-03T08:34:01;3.50;69.90
75451;DHT22;64029;48.244;9.188;2023-04-03T08:36:29;3.50;70.30
75451;DHT22;64029;48.244;9.188;2023-04-03T08:38:56;3.60;70.10
75451;DHT22;64029;48.244;9.188;2023-04-03T08:41:29;3.60;70.30
75451;DHT22;64029;48.244;9.188;2023-04-03T08:44:02;3.60;69.20
75451;DHT22;64029;48.244;9.188;2023-04-03T08:46:40;3.60;70.50
75451;DHT22;64029;48.244;9.188;2023-04-03T08:49:15;3.60;70.40
75451;DHT22;64029;48.244;9.188;2023-04-03T08:51:48;3.60;70.70
75451;DHT22;64029;48.244;9.188;2023-04-03T08:54:25;3.70;70.80
75451;DHT22;64029;48.244;9.188;2023-04-03T08:56:56;3.70;71.00
75451;DHT22;64029;48.244;9.188;2023-04-03T08:59:28;3.80;70.80
75451;DHT22;64029;48.244;9.188;2023-04-03T09:01:57;3.80;71.60
75451;DHT22;64029;48.244;9.188;2023-04-03T09:04:28;3.80;70.90
75451;DHT22;64029;48.244;9.188;2023-04-03T09:07:02;3.80;70.60
75451;DHT22;64029;48.244;9.188;2023-04-03T09:09:32;3.80;70.50
75451;DHT22;64029;48.244;9.188;2023-04-03T09:12:06;3.80;70.40
75451;DHT22;64029;48.244;9.188;2023-04-03T09:14:39;3.80;70.80
75451;DHT22;64029;48.244;9.188;2023-04-03T09:17:13;3.90;70.60
75451;DHT22;64029;48.244;9.188;2023-04-03T09:19:48;3.80;70.60
75451;DHT22;64029;48.244;9.188;2023-04-03T09:22:21;3.90;70.80
75451;DHT22;64029;48.244;9.188;2023-04-03T09:24:57;3.90;70.50
75451;DHT22;64029;48.244;9.188;2023-04-03T09:27:27;3.90;69.90
75451;DHT22;64029;48.244;9.188;2023-04-03T09:29:55;3.90;70.50
75451;DHT22;64029;48.244;9.188;2023-04-03T09:32:26;4.00;70.70
75451;DHT22;64029;48.244;9.188;2023-04-03T09:34:55;3.90;69.40
75451;DHT22;64029;48.244;9.188;2023-04-03T09:37:35;4.00;69.80
75451;DHT22;64029;48.244;9.188;2023-04-03T09:40:03;4.00;69.70
75451;DHT22;64029;48.244;9.188;2023-04-03T09:42:32;4.00;69.30
75451;DHT22;64029;48.244;9.188;2023-04-03T09:45:00;4.00;69.60
75451;DHT22;64029;48.244;9.188;2023-04-03T09:47:29;4.00;69.20
75451;DHT22;64029;48.244;9.188;2023-04-03T09:50:19;4.00;69.60
75451;DHT22;64029;48.244;9.188;2023-04-03T09:52:49;4.00;68.90
75451;DHT22;64029;48.244;9.188;2023-04-03T09:55:18;4.00;69.30
75451;DHT22;64029;48.244;9.188;2023-04-03T09:57:48;4.10;69.30
75451;DHT22;64029;48.244;9.188;2023-04-03T10:00:25;4.10;69.30
75451;DHT22;64029;48.244;9.188;2023-04-03T10:02:54;4.10;69.60
75451;DHT22;64029;48.244;9.188;2023-04-03T10:05:28;4.20;69.40
75451;DHT22;64029;48.244;9.188;2023-04-03T10:08:08;4.20;69.40
75451;DHT22;64029;48.244;9.188;2023-04-03T10:10:36;4.20;69.60
75451;DHT22;64029;48.244;9.188;2023-04-03T10:13:06;4.20;69.40
75451;DHT22;64029;48.244;9.188;2023-04-03T10:15:39;4.20;69.40
75451;DHT22;64029;48.244;9.188;2023-04-03T10:18:22;4.30;69.60
75451;DHT22;64029;48.244;9.188;2023-04-03T10:20:52;4.30;69.50
75451;DHT22;64029;48.244;9.188;2023-04-03T10:23:26;4.40;69.70
75451;DHT22;64029;48.244;9.188;2023-04-03T10:26:02;4.40;69.60
75451;DHT22;64029;48.244;9.188;2023-04-03T10:28:42;4.40;69.40
75451;DHT22;64029;48.244;9.188;2023-04-03T10:31:16;4.50;69.60
75451;DHT22;64029;48.244;9.188;2023-04-03T10:33:53;4.50;69.20
75451;DHT22;64029;48.244;9.188;2023-04-03T10:36:33;4.50;68.90
75451;DHT22;64029;48.244;9.188;2023-04-03T10:39:12;4.50;68.30
75451;DHT22;64029;48.244;9.188;2023-04-03T10:41:50;4.60;68.90
75451;DHT22;64029;48.244;9.188;2023-04-03T10:44:30;4.60;69.00
75451;DHT22;64029;48.244;9.188;2023-04-03T10:47:03;4.60;68.80
75451;DHT22;64029;48.244;9.188;2023-04-03T10:49:41;4.70;69.50
75451;DHT22;64029;48.244;9.188;2023-04-03T10:52:16;4.70;68.70
75451;DHT22;64029;48.244;9.188;2023-04-03T10:54:49;4.70;68.10
75451;DHT22;64029;48.244;9.188;2023-04-03T10:57:18;4.80;68.40
75451;DHT22;64029;48.244;9.188;2023-04-03T10:59:49;4.80;67.80
75451;DHT22;64029;48.244;9.188;2023-04-03T11:02:23;4.80;68.90
75451;DHT22;64029;48.244;9.188;2023-04-03T11:04:53;4.90;69.10
75451;DHT22;64029;48.244;9.188;2023-04-03T11:07:23;5.00;69.10
75451;DHT22;64029;48.244;9.188;2023-04-03T11:09:55;5.00;69.10
75451;DHT22;64029;48.244;9.188;2023-04-03T11:12:28;5.00;68.80
75451;DHT22;64029;48.244;9.188;2023-04-03T11:15:02;5.10;69.10
75451;DHT22;64029;48.244;9.188;2023-04-03T11:17:34;5.10;69.30
75451;DHT22;64029;48.244;9.188;2023-04-03T11:20:08;5.10;68.20
75451;DHT22;64029;48.244;9.188;2023-04-03T11:22:41;5.00;67.30
75451;DHT22;64029;48.244;9.188;2023-04-03T11:25:17;5.00;66.70
75451;DHT22;64029;48.244;9.188;2023-04-03T11:27:49;4.90;67.10
75451;DHT22;64029;48.244;9.188;2023-04-03T11:30:21;5.00;66.40
75451;DHT22;64029;48.244;9.188;2023-04-03T11:33:00;4.90;66.20
75451;DHT22;64029;48.244;9.188;2023-04-03T11:35:31;5.00;66.80
75451;DHT22;64029;48.244;9.188;2023-04-03T11:38:00;5.00;66.40
75451;DHT22;64029;48.244;9.188;2023-04-03T11:40:29;5.00;66.70
75451;DHT22;64029;48.244;9.188;2023-04-03T11:43:05;5.00;66.70
75451;DHT22;64029;48.244;9.188;2023-04-03T11:45:49;5.00;66.00
75451;DHT22;64029;48.244;9.188;2023-04-03T11:48:48;5.00;66.20
75451;DHT22;64029;48.244;9.188;2023-04-03T11:51:40;5.10;67.10
75451;DHT22;64029;48.244;9.188;2023-04-03T11:54:45;5.10;66.80
75451;DHT22;64029;48.244;9.188;2023-04-03T11:57:44;5.20;66.80
75451;DHT22;64029;48.244;9.188;2023-04-03T12:00:48;5.10;65.70
75451;DHT22;64029;48.244;9.188;2023-04-03T12:09:27;5.20;66.60
75451;DHT22;64029;48.244;9.188;2023-04-03T12:11:56;5.20;66.50
75451;DHT22;64029;48.244;9.188;2023-04-03T12:14:24;5.20;66.30
75451;DHT22;64029;48.244;9.188;2023-04-03T12:16:54;5.20;65.70
75451;DHT22;64029;48.244;9.188;2023-04-03T12:19:36;5.10;65.80
75451;DHT22;64029;48.244;9.188;2023-04-03T12:22:11;5.10;65.90
75451;DHT22;64029;48.244;9.188;2023-04-03T12:24:39;5.10;65.50
75451;DHT22;64029;48.244;9.188;2023-04-03T12:27:36;5.10;65.40
75451;DHT22;64029;48.244;9.188;2023-04-03T12:30:18;5.10;65.40
75451;DHT22;64029;48.244;9.188;2023-04-03T12:33:02;5.10;65.20
75451;DHT22;64029;48.244;9.188;2023-04-03T12:35:35;5.10;65.00
75451;DHT22;64029;48.244;9.188;2023-04-03T12:38:40;5.00;63.80
75451;DHT22;64029;48.244;9.188;2023-04-03T12:41:27;5.00;64.80
75451;DHT22;64029;48.244;9.188;2023-04-03T12:44:23;5.00;65.00
75451;DHT22;64029;48.244;9.188;2023-04-03T12:46:53;5.10;65.30
75451;DHT22;64029;48.244;9.188;2023-04-03T12:49:33;5.20;65.80
75451;DHT22;64029;48.244;9.188;2023-04-03T12:52:04;5.20;65.30
75451;DHT22;64029;48.244;9.188;2023-04-03T12:54:35;5.20;65.50
75451;DHT22;64029;48.244;9.188;2023-04-03T12:57:10;5.30;65.70
75451;DHT22;64029;48.244;9.188;2023-04-03T12:59:37;5.30;65.10
75451;DHT22;64029;48.244;9.188;2023-04-03T13:02:23;5.20;64.30
75451;DHT22;64029;48.244;9.188;2023-04-03T13:04:53;5.20;64.40
75451;DHT22;64029;48.244;9.188;2023-04-03T13:07:24;5.20;64.00
75451;DHT22;64029;48.244;9.188;2023-04-03T13:09:59;5.10;63.40
75451;DHT22;64029;48.244;9.188;2023-04-03T13:12:27;5.00;63.40
75451;DHT22;64029;48.244;9.188;2023-04-03T13:14:56;5.20;64.60
75451;DHT22;64029;48.244;9.188;2023-04-03T13:17:25;5.30;65.00
75451;DHT22;64029;48.244;9.188;2023-04-03T13:19:54;5.20;63.20
75451;DHT22;64029;48.244;9.188;2023-04-03T13:22:27;5.30;64.00
75451;DHT22;64029;48.244;9.188;2023-04-03T13:24:59;5.20;61.90
75451;DHT22;64029;48.244;9.188;2023-04-03T13:27:30;5.20;63.10
75451;DHT22;64029;48.244;9.188;2023-04-03T13:30:00;5.20;62.90
75451;DHT22;64029;48.244;9.188;2023-04-03T13:32:30;5.20;62.20
75451;DHT22;64029;48.244;9.188;2023-04-03T13:34:59;5.20;61.80
75451;DHT22;64029;48.244;9.188;2023-04-03T13:37:28;5.20;61.30
75451;DHT22;64029;48.244;9.188;2023-04-03T13:40:10;5.20;61.90
75451;DHT22;64029;48.244;9.188;2023-04-03T13:42:39;5.10;60.00
75451;DHT22;64029;48.244;9.188;2023-04-03T13:45:24;5.10;60.00
75451;DHT22;64029;48.244;9.188;2023-04-03T13:48:06;5.10;61.80
75451;DHT22;64029;48.244;9.188;2023-04-03T13:50:51;5.00;58.80
75451;DHT22;64029;48.244;9.188;2023-04-03T13:53:19;5.10;62.30
75451;DHT22;64029;48.244;9.188;2023-04-03T13:55:56;5.10;60.10
75451;DHT22;64029;48.244;9.188;2023-04-03T13:58:25;5.20;62.20
75451;DHT22;64029;48.244;9.188;2023-04-03T14:00:54;5.10;60.30
75451;DHT22;64029;48.244;9.188;2023-04-03T14:03:23;5.10;61.90
75451;DHT22;64029;48.244;9.188;2023-04-03T14:05:52;5.20;62.30
75451;DHT22;64029;48.244;9.188;2023-04-03T14:08:19;5.20;62.50
75451;DHT22;64029;48.244;9.188;2023-04-03T14:10:47;5.00;60.90
75451;DHT22;64029;48.244;9.188;2023-04-03T14:13:17;5.10;63.40
75451;DHT22;64029;48.244;9.188;2023-04-03T14:15:45;5.00;62.00
75451;DHT22;64029;48.244;9.188;2023-04-03T14:18:16;5.10;62.40
75451;DHT22;64029;48.244;9.188;2023-04-03T14:20:44;5.10;63.10
75451;DHT22;64029;48.244;9.188;2023-04-03T14:23:12;5.10;62.60
75451;DHT22;64029;48.244;9.188;2023-04-03T14:25:39;5.20;64.00
75451;DHT22;64029;48.244;9.188;2023-04-03T14:28:15;5.20;62.40
75451;DHT22;64029;48.244;9.188;2023-04-03T14:30:43;5.30;63.60
75451;DHT22;64029;48.244;9.188;2023-04-03T14:33:13;5.20;62.60
75451;DHT22;64029;48.244;9.188;2023-04-03T14:35:40;5.30;63.70
75451;DHT22;64029;48.244;9.188;2023-04-03T14:38:22;5.30;64.10
75451;DHT22;64029;48.244;9.188;2023-04-03T14:40:49;5.40;63.80
75451;DHT22;64029;48.244;9.188;2023-04-03T14:43:17;5.30;63.80
75451;DHT22;64029;48.244;9.188;2023-04-03T14:45:45;5.30;63.80
75451;DHT22;64029;48.244;9.188;2023-04-03T14:48:17;5.40;62.70
75451;DHT22;64029;48.244;9.188;2023-04-03T14:50:45;5.30;63.20
75451;DHT22;64029;48.244;9.188;2023-04-03T14:53:12;5.30;62.30
75451;DHT22;64029;48.244;9.188;2023-04-03T14:55:43;5.30;61.60
75451;DHT22;64029;48.244;9.188;2023-04-03T14:58:13;5.30;62.30
75451;DHT22;64029;48.244;9.188;2023-04-03T15:00:44;5.20;62.70
75451;DHT22;64029;48.244;9.188;2023-04-03T15:03:15;5.30;63.10
75451;DHT22;64029;48.244;9.188;2023-04-03T15:05:44;5.30;63.30
75451;DHT22;64029;48.244;9.188;2023-04-03T15:08:19;5.30;63.40
75451;DHT22;64029;48.244;9.188;2023-04-03T15:10:49;5.30;62.90
75451;DHT22;64029;48.244;9.188;2023-04-03T15:13:18;5.30;63.00
75451;DHT22;64029;48.244;9.188;2023-04-03T15:15:45;5.30;62.90
75451;DHT22;64029;48.244;9.188;2023-04-03T15:18:16;5.30;63.30
75451;DHT22;64029;48.244;9.188;2023-04-03T15:20:44;5.30;62.60
75451;DHT22;64029;48.244;9.188;2023-04-03T15:23:12;5.30;63.40
75451;DHT22;64029;48.244;9.188;2023-04-03T15:25:39;5.10;61.10
75451;DHT22;64029;48.244;9.188;2023-04-03T15:28:09;5.20;63.40
75451;DHT22;64029;48.244;9.188;2023-04-03T15:30:39;5.10;62.50
75451;DHT22;64029;48.244;9.188;2023-04-03T15:33:06;5.20;63.20
75451;DHT22;64029;48.244;9.188;2023-04-03T15:35:33;5.30;63.50
75451;DHT22;64029;48.244;9.188;2023-04-03T15:38:00;5.30;63.80
75451;DHT22;64029;48.244;9.188;2023-04-03T15:40:27;5.40;64.20
75451;DHT22;64029;48.244;9.188;2023-04-03T15:42:54;5.40;63.90
75451;DHT22;64029;48.244;9.188;2023-04-03T15:45:22;5.40;63.90
75451;DHT22;64029;48.244;9.188;2023-04-03T15:47:49;5.40;63.90
75451;DHT22;64029;48.244;9.188;2023-04-03T15:50:16;5.40;63.70
75451;DHT22;64029;48.244;9.188;2023-04-03T15:52:44;5.40;63.80
75451;DHT22;64029;48.244;9.188;2023-04-03T15:55:11;5.40;63.80
75451;DHT22;64029;48.244;9.188;2023-04-03T15:57:37;5.40;63.70
75451;DHT22;64029;48.244;9.188;2023-04-03T16:00:05;5.40;63.70
75451;DHT22;64029;48.244;9.188;2023-04-03T16:02:34;5.40;64.10
75451;DHT22;64029;48.244;9.188;2023-04-03T16:05:01;5.40;64.10
75451;DHT22;64029;48.244;9.188;2023-04-03T16:07:28;5.40;63.90
75451;DHT22;64029;48.244;9.188;2023-04-03T16:09:55;5.30;63.60
75451;DHT22;64029;48.244;9.188;2023-04-03T16:12:21;5.30;63.40